Time;durP1;ratioP1;P1;durP2;ratioP2;P2;SDS_P1;SDS_P2;PMS_P1;PMS_P2;Temp;Humidity;BMP_temperature;BMP_pressure;BME280_temperature;BME280_humidity;BME280_pressure;Samples;Min_cycle;Max_cycle;Signal;HPM_P1;HPM_P2
2023/05/23 00:01:49;;;;;;;26.57;20.30;;;;;;;;;;5016698;28;20429;-56
2023/05/23 00:04:17;;;;;;;26.05;19.80;;;;;;;;;;5015717;28;20475;-56
2023/05/23 00:06:45;;;;;;;28.23;21.90;;;;;;;;;;5017295;28;20458;-56
2023/05/23 00:09:14;;;;;;;26.95;20.42;;;;;;;;;;5014606;28;20477;-54
2023/05/23 00:11:43;;;;;;;25.02;20.05;;;;;;;;;;5016842;28;20491;-56
2023/05/23 00:14:12;;;;;;;25.88;19.67;;;;;;;;;;5017628;28;20865;-59
2023/05/23 00:16:40;;;;;;;25.88;20.20;;;;;;;;;;5018003;28;20468;-59
2023/05/23 00:19:07;;;;;;;26.73;21.08;;;;;;;;;;5014966;28;20426;-56
2023/05/23 00:21:34;;;;;;;22.00;16.23;;;;;;;;;;5021462;28;20427;-58
2023/05/23 00:24:03;;;;;;;18.52;15.32;;;;;;;;;;5014516;28;20431;-57
2023/05/23 00:26:31;;;;;;;18.08;15.02;;;;;;;;;;5015788;28;20424;-57
2023/05/23 00:28:58;;;;;;;19.10;14.55;;;;;;;;;;5017124;28;20477;-55
2023/05/23 00:31:25;;;;;;;17.55;15.50;;;;;;;;;;5018779;28;20432;-57
2023/05/23 00:33:52;;;;;;;21.80;17.63;;;;;;;;;;5015350;28;20412;-57
2023/05/23 00:36:21;;;;;;;23.08;19.52;;;;;;;;;;5018077;28;20428;-58
2023/05/23 00:38:48;;;;;;;21.50;19.05;;;;;;;;;;5014066;28;20427;-57
2023/05/23 00:41:17;;;;;;;19.17;16.55;;;;;;;;;;5018775;28;20440;-57
2023/05/23 00:43:45;;;;;;;16.80;13.00;;;;;;;;;;5014362;28;20821;-57
2023/05/23 00:46:12;;;;;;;12.85;10.25;;;;;;;;;;5019618;28;20424;-57
2023/05/23 00:48:39;;;;;;;13.23;10.40;;;;;;;;;;5013010;28;20832;-56
2023/05/23 00:51:06;;;;;;;11.10;9.88;;;;;;;;;;5019947;28;20448;-57
2023/05/23 00:53:34;;;;;;;11.15;9.15;;;;;;;;;;5014809;28;20417;-57
2023/05/23 00:56:01;;;;;;;9.27;8.13;;;;;;;;;;5018643;28;20414;-58
2023/05/23 00:58:28;;;;;;;10.70;8.40;;;;;;;;;;5013215;28;20424;-58
2023/05/23 01:00:56;;;;;;;10.73;7.95;;;;;;;;;;5015104;28;20434;-58
2023/05/23 01:03:27;;;;;;;11.60;8.73;;;;;;;;;;5013590;28;20901;-56
2023/05/23 01:05:54;;;;;;;9.73;8.43;;;;;;;;;;5014623;28;20422;-54
2023/05/23 01:08:21;;;;;;;10.88;8.65;;;;;;;;;;5013242;28;20419;-56
2023/05/23 01:10:49;;;;;;;11.23;9.45;;;;;;;;;;5022212;28;20415;-57
2023/05/23 01:13:21;;;;;;;11.23;9.73;;;;;;;;;;5015101;28;20433;-57
2023/05/23 01:15:51;;;;;;;10.33;9.20;;;;;;;;;;5022335;28;20449;-57
2023/05/23 01:18:24;;;;;;;10.68;8.80;;;;;;;;;;5016254;28;20473;-56
2023/05/23 01:20:54;;;;;;;10.45;8.38;;;;;;;;;;5014658;28;20478;-55
2023/05/23 01:23:38;;;;;;;9.98;8.23;;;;;;;;;;5017342;28;20788;-55
2023/05/23 01:26:11;;;;;;;11.68;9.38;;;;;;;;;;5016569;28;20483;-55
2023/05/23 01:28:44;;;;;;;9.45;8.02;;;;;;;;;;5015590;28;20421;-58
2023/05/23 01:31:11;;;;;;;9.32;7.70;;;;;;;;;;5018933;28;20417;-56
2023/05/23 01:33:38;;;;;;;11.60;8.55;;;;;;;;;;5012639;28;20451;-59
2023/05/23 01:36:06;;;;;;;10.52;8.65;;;;;;;;;;5017894;28;20466;-58
2023/05/23 01:38:33;;;;;;;9.48;8.45;;;;;;;;;;5011160;28;20486;-55
2023/05/23 01:41:00;;;;;;;10.23;8.85;;;;;;;;;;5018662;28;20420;-56
2023/05/23 01:43:27;;;;;;;12.13;9.25;;;;;;;;;;5011972;28;20420;-58
2023/05/23 01:45:56;;;;;;;11.18;9.07;;;;;;;;;;5018565;28;20415;-58
2023/05/23 01:48:24;;;;;;;10.45;8.98;;;;;;;;;;5015791;28;20501;-56
2023/05/23 01:50:51;;;;;;;12.38;10.05;;;;;;;;;;5025604;28;20411;-56
2023/05/23 01:53:19;;;;;;;11.07;9.25;;;;;;;;;;5014311;28;20975;-58
2023/05/23 01:55:47;;;;;;;11.70;10.23;;;;;;;;;;5027275;28;20915;-59
2023/05/23 01:58:14;;;;;;;14.15;10.65;;;;;;;;;;5019400;28;20463;-58
2023/05/23 02:00:41;;;;;;;16.15;11.15;;;;;;;;;;5020336;28;20436;-58
2023/05/23 02:03:10;;;;;;;12.88;10.65;;;;;;;;;;5016226;28;20482;-58
2023/05/23 02:05:37;;;;;;;13.88;11.00;;;;;;;;;;5023686;28;20411;-59
2023/05/23 02:08:04;;;;;;;13.70;11.55;;;;;;;;;;5013545;28;20436;-58
2023/05/23 02:10:31;;;;;;;15.57;11.25;;;;;;;;;;5023544;28;20505;-59
2023/05/23 02:12:58;;;;;;;15.55;11.68;;;;;;;;;;5012562;28;20417;-59
2023/05/23 02:15:25;;;;;;;15.20;11.60;;;;;;;;;;5022342;28;20419;-58
2023/05/23 02:17:52;;;;;;;14.98;11.60;;;;;;;;;;5014637;28;20483;-59
2023/05/23 02:20:20;;;;;;;14.88;12.73;;;;;;;;;;5019034;28;20830;-59
2023/05/23 02:22:47;;;;;;;15.88;12.90;;;;;;;;;;5016989;28;20471;-58
2023/05/23 02:25:15;;;;;;;15.73;12.20;;;;;;;;;;5021854;28;20424;-58
2023/05/23 02:27:42;;;;;;;17.90;12.90;;;;;;;;;;5018341;28;20415;-59
2023/05/23 02:30:09;;;;;;;15.25;12.45;;;;;;;;;;5023491;28;20940;-58
2023/05/23 02:32:37;;;;;;;15.95;12.60;;;;;;;;;;5018832;28;20426;-59
2023/05/23 02:35:05;;;;;;;17.83;12.40;;;;;;;;;;5022463;28;20475;-55
2023/05/23 02:37:33;;;;;;;16.35;12.75;;;;;;;;;;5015875;28;20515;-58
2023/05/23 02:40:00;;;;;;;16.02;14.23;;;;;;;;;;5019589;28;20559;-56
2023/05/23 02:42:27;;;;;;;19.70;14.40;;;;;;;;;;5018380;28;20445;-57
2023/05/23 02:44:54;;;;;;;16.92;13.80;;;;;;;;;;5023038;28;20424;-59
2023/05/23 02:47:21;;;;;;;18.60;14.38;;;;;;;;;;5016755;28;20825;-58
2023/05/23 02:49:48;;;;;;;18.52;14.38;;;;;;;;;;5020614;28;20424;-56
2023/05/23 02:52:15;;;;;;;19.75;14.80;;;;;;;;;;5017630;28;20429;-57
2023/05/23 02:54:44;;;;;;;18.27;14.90;;;;;;;;;;5019046;28;20430;-59
2023/05/23 02:57:11;;;;;;;15.35;13.68;;;;;;;;;;5020109;28;20431;-57
2023/05/23 02:59:38;;;;;;;19.67;14.35;;;;;;;;;;5018267;28;20411;-58
2023/05/23 03:02:05;;;;;;;16.80;14.33;;;;;;;;;;5016886;28;20489;-59
2023/05/23 03:04:32;;;;;;;22.98;15.57;;;;;;;;;;5023169;28;20415;-59
2023/05/23 03:06:59;;;;;;;21.40;15.15;;;;;;;;;;5016706;28;20424;-59
2023/05/23 03:09:26;;;;;;;19.02;14.70;;;;;;;;;;5019512;28;20768;-58
2023/05/23 03:11:55;;;;;;;20.73;15.25;;;;;;;;;;5016137;28;20454;-57
2023/05/23 03:14:22;;;;;;;19.53;13.53;;;;;;;;;;5021506;28;20434;-57
2023/05/23 03:16:49;;;;;;;18.02;13.02;;;;;;;;;;5020842;28;20428;-57
2023/05/23 03:19:16;;;;;;;17.50;12.93;;;;;;;;;;5021692;28;20863;-58
2023/05/23 03:21:43;;;;;;;17.75;12.25;;;;;;;;;;5017413;28;20479;-55
2023/05/23 03:24:10;;;;;;;16.20;11.97;;;;;;;;;;5018821;28;20425;-58
2023/05/23 03:26:37;;;;;;;17.17;12.48;;;;;;;;;;5017955;28;20847;-56
2023/05/23 03:29:06;;;;;;;17.83;11.98;;;;;;;;;;5019123;28;20464;-58
2023/05/23 03:31:33;;;;;;;15.35;11.63;;;;;;;;;;5018374;28;20531;-57
2023/05/23 03:34:00;;;;;;;17.88;12.02;;;;;;;;;;5019919;28;20426;-57
2023/05/23 03:36:27;;;;;;;17.27;11.55;;;;;;;;;;5019810;28;20944;-56
2023/05/23 03:38:54;;;;;;;17.70;11.80;;;;;;;;;;5022112;28;20419;-59
2023/05/23 03:41:21;;;;;;;15.77;10.95;;;;;;;;;;5013662;28;20487;-55
2023/05/23 03:43:48;;;;;;;19.02;11.68;;;;;;;;;;5019406;28;20415;-60
2023/05/23 03:46:17;;;;;;;18.20;12.75;;;;;;;;;;5021028;28;20479;-59
2023/05/23 03:48:44;;;;;;;17.40;13.07;;;;;;;;;;5019219;28;20454;-59
2023/05/23 03:51:12;;;;;;;19.25;13.70;;;;;;;;;;5020444;28;20841;-58
2023/05/23 03:53:39;;;;;;;17.45;13.30;;;;;;;;;;5013478;28;20882;-59
2023/05/23 03:56:06;;;;;;;17.50;12.95;;;;;;;;;;5020506;28;20489;-58
2023/05/23 03:58:33;;;;;;;17.63;13.07;;;;;;;;;;5019789;28;20478;-59
2023/05/23 04:01:00;;;;;;;17.17;12.82;;;;;;;;;;5020593;28;20901;-57
2023/05/23 04:03:31;;;;;;;16.63;13.30;;;;;;;;;;5011975;28;20428;-58
2023/05/23 04:05:58;;;;;;;18.85;14.27;;;;;;;;;;5018919;28;20435;-58
2023/05/23 04:08:25;;;;;;;19.63;14.48;;;;;;;;;;5011546;28;20856;-58
2023/05/23 04:10:52;;;;;;;18.65;13.57;;;;;;;;;;5021978;28;20414;-56
2023/05/23 04:13:19;;;;;;;18.65;14.57;;;;;;;;;;5015332;28;20471;-57
2023/05/23 04:15:47;;;;;;;17.77;13.70;;;;;;;;;;5021050;28;20773;-58
2023/05/23 04:18:16;;;;;;;17.70;13.40;;;;;;;;;;5018789;28;20523;-57
2023/05/23 04:20:44;;;;;;;18.38;14.48;;;;;;;;;;5017297;28;20426;-59
2023/05/23 04:23:11;;;;;;;17.67;14.20;;;;;;;;;;5012736;28;20422;-56
2023/05/23 04:25:39;;;;;;;20.60;14.55;;;;;;;;;;5019385;28;20907;-58
2023/05/23 04:28:09;;;;;;;20.67;15.15;;;;;;;;;;5018860;28;20422;-59
2023/05/23 04:30:36;;;;;;;22.38;16.33;;;;;;;;;;5020593;28;20475;-57
2023/05/23 04:33:03;;;;;;;23.42;16.15;;;;;;;;;;5012066;28;20424;-57
2023/05/23 04:35:32;;;;;;;19.50;15.23;;;;;;;;;;5022807;28;20415;-59
2023/05/23 04:38:02;;;;;;;20.50;14.80;;;;;;;;;;5013054;28;20824;-57
2023/05/23 04:40:30;;;;;;;22.00;14.17;;;;;;;;;;5020139;28;20471;-58
2023/05/23 04:42:57;;;;;;;21.25;14.50;;;;;;;;;;5012380;28;20489;-58
2023/05/23 04:45:25;;;;;;;22.13;15.23;;;;;;;;;;5020110;28;20460;-58
2023/05/23 04:47:53;;;;;;;19.17;13.40;;;;;;;;;;5012282;28;20508;-56
2023/05/23 04:50:21;;;;;;;20.25;13.23;;;;;;;;;;5020479;28;20467;-60
2023/05/23 04:52:48;;;;;;;19.42;13.23;;;;;;;;;;5012799;28;20852;-60
2023/05/23 04:55:17;;;;;;;19.45;13.07;;;;;;;;;;5019534;28;20421;-60
2023/05/23 04:57:44;;;;;;;20.02;13.30;;;;;;;;;;5012062;28;20462;-58
2023/05/23 05:00:11;;;;;;;20.92;13.15;;;;;;;;;;5020545;28;20415;-57
2023/05/23 05:02:39;;;;;;;21.38;13.40;;;;;;;;;;5012921;28;20435;-56
2023/05/23 05:05:06;;;;;;;22.25;14.02;;;;;;;;;;5019947;28;20424;-57
2023/05/23 05:07:35;;;;;;;20.90;14.55;;;;;;;;;;5013404;28;20916;-59
2023/05/23 05:10:02;;;;;;;20.98;15.00;;;;;;;;;;5017070;28;20420;-57
2023/05/23 05:12:30;;;;;;;26.67;15.50;;;;;;;;;;5014110;28;20762;-59
2023/05/23 05:14:57;;;;;;;23.45;17.30;;;;;;;;;;5021246;28;20434;-55
2023/05/23 05:17:24;;;;;;;24.45;15.93;;;;;;;;;;5016865;28;20428;-59
2023/05/23 05:19:51;;;;;;;20.38;15.90;;;;;;;;;;5018470;28;20839;-58
2023/05/23 05:22:18;;;;;;;24.00;16.25;;;;;;;;;;5014514;28;20486;-57
2023/05/23 05:24:45;;;;;;;22.35;15.75;;;;;;;;;;5016504;28;20419;-57
2023/05/23 05:27:12;;;;;;;23.23;16.50;;;;;;;;;;5013986;28;20428;-56
2023/05/23 05:29:41;;;;;;;25.90;17.13;;;;;;;;;;5017369;28;20431;-58
2023/05/23 05:32:08;;;;;;;29.15;19.05;;;;;;;;;;5014085;28;20451;-56
2023/05/23 05:34:36;;;;;;;26.02;17.80;;;;;;;;;;5020017;28;20450;-57
2023/05/23 05:37:03;;;;;;;27.90;20.17;;;;;;;;;;5014187;28;20502;-56
2023/05/23 05:39:30;;;;;;;26.10;18.50;;;;;;;;;;5017473;28;20422;-58
2023/05/23 05:41:58;;;;;;;23.15;15.75;;;;;;;;;;5017661;28;20437;-56
2023/05/23 05:44:25;;;;;;;22.90;14.75;;;;;;;;;;5020008;28;20783;-57
2023/05/23 05:46:54;;;;;;;21.13;15.35;;;;;;;;;;5014335;28;20490;-58
2023/05/23 05:49:21;;;;;;;22.33;14.85;;;;;;;;;;5013128;28;20427;-57
2023/05/23 05:51:48;;;;;;;23.03;15.27;;;;;;;;;;5017530;28;20420;-58
2023/05/23 05:54:15;;;;;;;22.90;14.00;;;;;;;;;;5017039;28;20422;-56
2023/05/23 05:56:42;;;;;;;23.10;16.02;;;;;;;;;;5020166;28;20908;-57
2023/05/23 05:59:09;;;;;;;23.90;15.90;;;;;;;;;;5020737;28;20504;-57
2023/05/23 06:01:36;;;;;;;22.45;15.55;;;;;;;;;;5018733;28;20436;-56
2023/05/23 06:04:05;;;;;;;23.70;16.23;;;;;;;;;;5015345;28;20473;-59
2023/05/23 06:06:32;;;;;;;23.50;15.33;;;;;;;;;;5017519;28;20463;-59
2023/05/23 06:08:59;;;;;;;23.70;15.85;;;;;;;;;;5014425;28;20471;-57
2023/05/23 06:11:26;;;;;;;22.92;15.68;;;;;;;;;;5017325;28;20494;-58
2023/05/23 06:13:53;;;;;;;23.05;15.80;;;;;;;;;;5020564;28;20410;-59
2023/05/23 06:16:20;;;;;;;25.17;17.15;;;;;;;;;;5016790;28;20889;-56
2023/05/23 06:18:47;;;;;;;24.77;17.52;;;;;;;;;;5020811;28;20892;-56
2023/05/23 06:21:16;;;;;;;22.42;16.75;;;;;;;;;;5017365;28;20522;-58
2023/05/23 06:23:43;;;;;;;20.40;16.00;;;;;;;;;;5017333;28;20474;-58
2023/05/23 06:26:10;;;;;;;24.05;16.88;;;;;;;;;;5017831;28;20482;-57
2023/05/23 06:28:38;;;;;;;19.17;14.57;;;;;;;;;;5014606;28;20462;-57
2023/05/23 06:31:05;;;;;;;21.10;16.10;;;;;;;;;;5018096;28;20426;-58
2023/05/23 06:33:32;;;;;;;22.40;15.35;;;;;;;;;;5019040;28;20483;-59
2023/05/23 06:35:59;;;;;;;19.88;15.02;;;;;;;;;;5022924;28;20424;-57
2023/05/23 06:38:29;;;;;;;20.98;15.15;;;;;;;;;;5021573;28;20421;-59
2023/05/23 06:40:56;;;;;;;20.25;15.10;;;;;;;;;;5022890;28;20427;-58
2023/05/23 06:43:23;;;;;;;18.80;13.50;;;;;;;;;;5020120;28;20425;-57
2023/05/23 06:45:50;;;;;;;19.50;12.90;;;;;;;;;;5025294;28;20419;-59
2023/05/23 06:48:17;;;;;;;20.60;13.63;;;;;;;;;;5019907;28;20489;-58
2023/05/23 06:50:44;;;;;;;20.05;13.30;;;;;;;;;;5023677;28;20423;-58
2023/05/23 06:53:11;;;;;;;19.42;12.73;;;;;;;;;;5019074;28;20474;-59
2023/05/23 06:55:40;;;;;;;15.17;11.33;;;;;;;;;;5017272;28;20419;-59
2023/05/23 06:58:07;;;;;;;14.00;9.93;;;;;;;;;;5018101;28;20883;-59
2023/05/23 07:00:34;;;;;;;12.43;9.43;;;;;;;;;;5022309;28;20913;-54
2023/05/23 07:03:02;;;;;;;11.50;8.70;;;;;;;;;;5015291;28;20436;-57
2023/05/23 07:05:29;;;;;;;15.70;8.55;;;;;;;;;;5022557;28;20427;-55
2023/05/23 07:07:56;;;;;;;12.48;8.93;;;;;;;;;;5014745;28;20421;-58
2023/05/23 07:10:25;;;;;;;13.75;8.70;;;;;;;;;;5022183;28;20831;-53
2023/05/23 07:12:53;;;;;;;16.35;9.75;;;;;;;;;;5015012;28;20420;-59
2023/05/23 07:15:20;;;;;;;14.48;9.70;;;;;;;;;;5022231;28;20420;-57
2023/05/23 07:17:47;;;;;;;15.88;9.95;;;;;;;;;;5015941;28;20807;-57
2023/05/23 07:20:14;;;;;;;14.18;9.43;;;;;;;;;;5021014;28;20508;-57
2023/05/23 07:22:41;;;;;;;17.73;9.80;;;;;;;;;;5013892;28;20467;-58
2023/05/23 07:25:09;;;;;;;14.25;8.43;;;;;;;;;;5020910;28;20443;-58
2023/05/23 07:27:36;;;;;;;17.08;9.38;;;;;;;;;;5018051;28;20428;-53
2023/05/23 07:30:05;;;;;;;11.90;8.73;;;;;;;;;;5020463;28;20425;-57
2023/05/23 07:32:32;;;;;;;16.48;9.15;;;;;;;;;;5016884;28;20425;-57
2023/05/23 07:34:59;;;;;;;15.60;9.38;;;;;;;;;;5020605;28;20506;-56
2023/05/23 07:37:26;;;;;;;14.85;9.27;;;;;;;;;;5017775;28;20432;-55
2023/05/23 07:39:53;;;;;;;13.05;9.02;;;;;;;;;;5018350;28;20436;-55
2023/05/23 07:42:20;;;;;;;13.18;8.38;;;;;;;;;;5014786;28;20507;-59
2023/05/23 07:44:47;;;;;;;16.20;9.38;;;;;;;;;;5012948;28;20483;-61
2023/05/23 07:47:16;;;;;;;14.52;9.52;;;;;;;;;;5017975;28;20822;-58
2023/05/23 07:49:43;;;;;;;16.70;9.50;;;;;;;;;;5011921;28;20486;-58
2023/05/23 07:52:10;;;;;;;16.65;10.30;;;;;;;;;;5014330;28;20503;-58
2023/05/23 07:54:37;;;;;;;16.85;9.07;;;;;;;;;;5017281;28;20433;-58
2023/05/23 07:57:06;;;;;;;19.35;9.45;;;;;;;;;;5014049;28;20968;-58
2023/05/23 07:59:33;;;;;;;19.70;11.07;;;;;;;;;;5019796;28;20928;-60
2023/05/23 08:02:00;;;;;;;23.58;12.02;;;;;;;;;;5020654;28;20502;-60
2023/05/23 08:04:28;;;;;;;21.85;13.48;;;;;;;;;;5027342;28;20480;-61
2023/05/23 08:06:55;;;;;;;22.92;14.27;;;;;;;;;;5022770;28;20762;-61
2023/05/23 08:09:23;;;;;;;22.38;13.15;;;;;;;;;;5012779;28;20919;-61
2023/05/23 08:11:50;;;;;;;22.52;13.40;;;;;;;;;;5019755;28;20418;-60
2023/05/23 08:14:17;;;;;;;22.00;10.80;;;;;;;;;;5014814;28;20901;-62
2023/05/23 08:16:45;;;;;;;21.00;11.23;;;;;;;;;;5028337;28;20423;-60
2023/05/23 08:19:12;;;;;;;21.42;11.93;;;;;;;;;;5025391;28;20470;-61
2023/05/23 08:21:41;;;;;;;20.42;12.00;;;;;;;;;;5020384;28;20483;-61
2023/05/23 08:24:08;;;;;;;20.92;12.88;;;;;;;;;;5019614;28;20446;-61
2023/05/23 08:26:36;;;;;;;23.15;14.02;;;;;;;;;;5025142;28;20426;-60
2023/05/23 08:29:03;;;;;;;23.75;13.73;;;;;;;;;;5020151;28;20959;-59
2023/05/23 08:31:30;;;;;;;20.30;13.17;;;;;;;;;;5021011;28;20420;-58
2023/05/23 08:33:57;;;;;;;21.02;14.30;;;;;;;;;;5023267;28;20502;-59
2023/05/23 08:36:24;;;;;;;22.97;14.10;;;;;;;;;;5021107;28;20421;-58
2023/05/23 08:38:52;;;;;;;21.60;15.05;;;;;;;;;;5018518;28;20482;-58
2023/05/23 08:41:20;;;;;;;26.13;17.85;;;;;;;;;;5023104;28;20802;-58
2023/05/23 08:43:47;;;;;;;26.20;18.45;;;;;;;;;;5020862;28;20890;-61
2023/05/23 08:46:15;;;;;;;23.37;16.33;;;;;;;;;;5022437;28;20479;-59
2023/05/23 08:48:42;;;;;;;25.67;15.63;;;;;;;;;;5021625;28;20458;-59
2023/05/23 08:51:11;;;;;;;22.95;15.55;;;;;;;;;;5019654;28;20958;-57
2023/05/23 08:53:38;;;;;;;24.52;16.38;;;;;;;;;;5021544;28;20921;-58
2023/05/23 08:56:07;;;;;;;24.10;16.02;;;;;;;;;;5022007;28;20419;-60
2023/05/23 08:58:35;;;;;;;23.85;15.32;;;;;;;;;;5021407;28;20433;-59
2023/05/23 09:01:02;;;;;;;23.97;16.07;;;;;;;;;;5019802;28;20466;-60
2023/05/23 09:03:30;;;;;;;25.52;17.83;;;;;;;;;;5022286;28;20427;-58
2023/05/23 09:05:57;;;;;;;25.77;17.05;;;;;;;;;;5020998;28;20973;-59
2023/05/23 09:08:24;;;;;;;24.42;16.80;;;;;;;;;;5016773;28;20420;-59
2023/05/23 09:10:51;;;;;;;21.57;15.17;;;;;;;;;;5021991;28;20495;-61
2023/05/23 09:13:20;;;;;;;21.40;15.35;;;;;;;;;;5019977;28;20413;-59
2023/05/23 09:15:58;;;;;;;21.08;14.45;;;;;;;;;;5019982;28;20425;-61
2023/05/23 09:18:25;;;;;;;17.92;14.32;;;;;;;;;;5021461;28;20983;-61
2023/05/23 09:20:52;;;;;;;23.85;16.90;;;;;;;;;;5021718;28;20422;-59
2023/05/23 09:23:19;;;;;;;22.13;16.37;;;;;;;;;;5022117;28;20426;-59
2023/05/23 09:25:47;;;;;;;23.73;16.33;;;;;;;;;;5020233;28;20443;-57
2023/05/23 09:28:14;;;;;;;25.38;16.08;;;;;;;;;;5020424;28;20490;-60
2023/05/23 09:30:43;;;;;;;25.35;17.27;;;;;;;;;;5015418;28;20425;-59
2023/05/23 09:33:11;;;;;;;23.98;16.95;;;;;;;;;;5022767;28;20830;-60
2023/05/23 09:35:43;;;;;;;21.67;13.68;;;;;;;;;;5021486;28;20786;-61
2023/05/23 09:38:11;;;;;;;18.73;11.30;;;;;;;;;;5019664;28;20412;-60
2023/05/23 09:40:38;;;;;;;18.45;10.50;;;;;;;;;;5020624;28;20430;-60
2023/05/23 09:43:06;;;;;;;20.52;9.80;;;;;;;;;;5022154;28;20505;-59
2023/05/23 09:45:34;;;;;;;20.52;10.07;;;;;;;;;;5021973;28;20421;-57
2023/05/23 09:48:03;;;;;;;16.80;9.47;;;;;;;;;;5020641;28;20413;-59
2023/05/23 09:50:32;;;;;;;16.92;9.10;;;;;;;;;;5019087;28;20420;-60
2023/05/23 09:53:00;;;;;;;17.95;9.57;;;;;;;;;;5020990;28;20441;-57
2023/05/23 09:55:27;;;;;;;24.17;11.63;;;;;;;;;;5023455;28;20507;-60
2023/05/23 09:57:55;;;;;;;21.35;13.27;;;;;;;;;;5022513;28;20407;-61
2023/05/23 10:00:24;;;;;;;21.27;12.93;;;;;;;;;;5024541;28;20431;-60
2023/05/23 10:02:55;;;;;;;22.52;14.23;;;;;;;;;;5026528;28;20430;-61
2023/05/23 10:05:31;;;;;;;19.00;12.07;;;;;;;;;;5027466;28;20418;-60
2023/05/23 10:08:00;;;;;;;20.55;10.93;;;;;;;;;;5023014;28;20412;-60
2023/05/23 10:10:28;;;;;;;19.35;11.40;;;;;;;;;;5019586;28;20478;-61
2023/05/23 10:12:57;;;;;;;21.45;11.02;;;;;;;;;;5028141;28;20415;-61
2023/05/23 10:15:27;;;;;;;18.30;11.63;;;;;;;;;;5027973;28;20475;-61
2023/05/23 10:18:03;;;;;;;20.65;12.13;;;;;;;;;;5027699;28;20461;-63
2023/05/23 10:20:33;;;;;;;24.38;13.10;;;;;;;;;;5033888;28;20459;-60
2023/05/23 10:23:01;;;;;;;24.48;14.07;;;;;;;;;;5034296;28;20432;-61
2023/05/23 10:25:28;;;;;;;25.02;14.88;;;;;;;;;;5030929;28;20417;-61
2023/05/23 10:27:57;;;;;;;27.05;15.98;;;;;;;;;;5035605;28;20451;-61
2023/05/23 10:30:25;;;;;;;24.65;15.02;;;;;;;;;;5036418;28;20407;-60
2023/05/23 10:32:53;;;;;;;24.00;12.40;;;;;;;;;;5022545;28;20411;-63
2023/05/23 10:35:24;;;;;;;24.40;12.48;;;;;;;;;;5026261;28;20473;-62
2023/05/23 10:37:57;;;;;;;22.45;11.57;;;;;;;;;;5023920;28;20420;-61
2023/05/23 10:40:28;;;;;;;20.23;10.27;;;;;;;;;;5021515;28;20805;-60
2023/05/23 10:42:58;;;;;;;24.88;10.80;;;;;;;;;;5022241;28;20454;-60
2023/05/23 10:45:25;;;;;;;17.42;9.48;;;;;;;;;;5020441;28;21155;-59
2023/05/23 10:47:53;;;;;;;17.38;9.60;;;;;;;;;;5026499;28;20418;-59
2023/05/23 10:50:33;;;;;;;17.77;8.63;;;;;;;;;;5023491;28;21067;-61
2023/05/23 10:53:02;;;;;;;17.43;7.90;;;;;;;;;;5024943;28;20608;-59
2023/05/23 10:55:32;;;;;;;14.75;7.35;;;;;;;;;;5018048;28;20412;-59
2023/05/23 10:58:12;;;;;;;16.90;8.38;;;;;;;;;;5016635;28;20470;-59
2023/05/23 11:00:39;;;;;;;14.30;6.53;;;;;;;;;;5021043;28;20484;-61
2023/05/23 11:03:07;;;;;;;12.48;6.40;;;;;;;;;;5023433;28;20834;-59
2023/05/23 11:05:37;;;;;;;14.98;6.60;;;;;;;;;;5024317;28;20438;-60
2023/05/23 11:08:10;;;;;;;13.73;6.35;;;;;;;;;;5019738;28;20420;-61
2023/05/23 11:10:53;;;;;;;11.02;6.50;;;;;;;;;;5013660;28;20425;-61
2023/05/23 11:13:21;;;;;;;10.93;6.30;;;;;;;;;;5014319;28;20466;-61
2023/05/23 11:15:48;;;;;;;15.93;6.78;;;;;;;;;;5023195;28;20974;-58
2023/05/23 11:18:22;;;;;;;12.93;6.32;;;;;;;;;;5023607;28;20419;-61
2023/05/23 11:20:50;;;;;;;11.90;6.30;;;;;;;;;;5018157;28;20892;-60
2023/05/23 11:23:19;;;;;;;11.45;6.18;;;;;;;;;;5022346;28;20464;-59
2023/05/23 11:25:48;;;;;;;10.40;6.10;;;;;;;;;;5020540;28;20421;-60
2023/05/23 11:28:16;;;;;;;12.57;6.63;;;;;;;;;;5020609;28;20975;-59
2023/05/23 11:30:43;;;;;;;12.18;5.80;;;;;;;;;;5019417;28;20474;-59
2023/05/23 11:33:12;;;;;;;11.25;6.30;;;;;;;;;;5018476;28;20471;-60
2023/05/23 11:35:40;;;;;;;10.68;5.97;;;;;;;;;;5023618;28;20472;-58
2023/05/23 11:38:07;;;;;;;11.13;5.57;;;;;;;;;;5019907;28;20474;-61
2023/05/23 11:40:36;;;;;;;13.77;5.70;;;;;;;;;;5022628;28;20423;-58
2023/05/23 11:43:04;;;;;;;11.75;5.68;;;;;;;;;;5017382;28;20502;-59
2023/05/23 11:45:31;;;;;;;9.60;6.13;;;;;;;;;;5020581;28;20428;-59
2023/05/23 11:47:59;;;;;;;10.45;5.47;;;;;;;;;;5021088;28;20450;-59
2023/05/23 11:50:26;;;;;;;11.00;5.57;;;;;;;;;;5021565;28;20421;-57
2023/05/23 11:52:55;;;;;;;11.05;5.68;;;;;;;;;;5019515;28;20476;-58
2023/05/23 11:55:22;;;;;;;10.23;5.18;;;;;;;;;;5021859;28;20459;-58
2023/05/23 11:57:51;;;;;;;10.10;5.18;;;;;;;;;;5022667;28;20452;-59
2023/05/23 12:00:19;;;;;;;9.17;4.80;;;;;;;;;;5020902;28;20520;-58
2023/05/23 12:02:47;;;;;;;14.18;5.85;;;;;;;;;;5022776;28;20803;-58
2023/05/23 12:05:15;;;;;;;10.23;6.13;;;;;;;;;;5016999;28;20549;-58
2023/05/23 12:07:42;;;;;;;11.65;5.15;;;;;;;;;;5021028;28;20810;-58
2023/05/23 12:10:10;;;;;;;11.88;6.18;;;;;;;;;;5020945;28;20454;-59
2023/05/23 12:12:37;;;;;;;11.30;5.28;;;;;;;;;;5021152;28;20452;-59
2023/05/23 12:15:06;;;;;;;11.50;5.20;;;;;;;;;;5022459;28;20422;-58
2023/05/23 12:17:33;;;;;;;11.10;5.10;;;;;;;;;;5020961;28;20420;-59
2023/05/23 12:20:00;;;;;;;13.77;4.93;;;;;;;;;;5022538;28;20421;-58
2023/05/23 12:22:28;;;;;;;8.57;4.63;;;;;;;;;;5016884;28;20487;-59
2023/05/23 12:24:56;;;;;;;10.43;4.75;;;;;;;;;;5020176;28;20885;-58
2023/05/23 12:27:28;;;;;;;11.23;4.38;;;;;;;;;;5024987;28;20838;-58
2023/05/23 12:30:04;;;;;;;9.85;4.97;;;;;;;;;;5021654;28;20486;-61
2023/05/23 12:32:33;;;;;;;11.57;4.72;;;;;;;;;;5017855;28;20508;-64
2023/05/23 12:35:00;;;;;;;10.55;4.70;;;;;;;;;;5018857;28;20503;-56
2023/05/23 12:37:28;;;;;;;13.18;5.00;;;;;;;;;;5020348;28;20428;-57
2023/05/23 12:39:55;;;;;;;13.65;5.40;;;;;;;;;;5022395;28;20465;-57
2023/05/23 12:42:22;;;;;;;11.10;5.07;;;;;;;;;;5008838;28;20427;-63
2023/05/23 12:44:51;;;;;;;10.23;5.20;;;;;;;;;;5017735;28;20436;-61
2023/05/23 12:47:19;;;;;;;11.63;4.63;;;;;;;;;;5018992;28;21129;-61
2023/05/23 12:49:48;;;;;;;11.40;4.53;;;;;;;;;;5020771;28;20517;-63
2023/05/23 12:52:15;;;;;;;14.05;5.00;;;;;;;;;;5021117;28;20776;-63
2023/05/23 12:54:42;;;;;;;9.30;4.45;;;;;;;;;;5020894;28;20415;-62
2023/05/23 12:57:09;;;;;;;11.93;4.50;;;;;;;;;;5022105;28;20465;-62
2023/05/23 12:59:36;;;;;;;14.20;4.60;;;;;;;;;;5018488;28;20415;-61
2023/05/23 13:02:03;;;;;;;9.18;4.30;;;;;;;;;;5018193;28;20447;-62
2023/05/23 13:04:30;;;;;;;11.98;4.65;;;;;;;;;;5021421;28;20431;-62
2023/05/23 13:06:59;;;;;;;10.32;4.38;;;;;;;;;;5020541;28;20810;-60
2023/05/23 13:09:26;;;;;;;10.90;4.70;;;;;;;;;;5021954;28;20469;-59
2023/05/23 13:11:53;;;;;;;12.82;4.88;;;;;;;;;;5018171;28;20419;-61
2023/05/23 13:14:20;;;;;;;10.90;5.13;;;;;;;;;;5021536;28;20872;-58
2023/05/23 13:16:47;;;;;;;13.73;6.15;;;;;;;;;;5020527;28;20447;-57
2023/05/23 13:19:14;;;;;;;10.95;5.25;;;;;;;;;;5019971;28;20949;-62
2023/05/23 13:21:41;;;;;;;13.75;4.88;;;;;;;;;;5020900;28;20425;-59
2023/05/23 13:24:09;;;;;;;11.52;5.05;;;;;;;;;;5020981;28;20427;-60
2023/05/23 13:26:36;;;;;;;10.18;4.47;;;;;;;;;;5021411;28;20424;-62
2023/05/23 13:29:03;;;;;;;9.52;4.30;;;;;;;;;;5019194;28;20439;-62
2023/05/23 13:31:30;;;;;;;11.60;4.95;;;;;;;;;;5021658;28;21319;-62
2023/05/23 13:33:57;;;;;;;13.13;6.03;;;;;;;;;;5018112;28;20423;-62
2023/05/23 13:36:25;;;;;;;13.00;6.10;;;;;;;;;;5017840;28;20460;-62
2023/05/23 13:38:52;;;;;;;13.73;5.90;;;;;;;;;;5019674;28;20452;-61
2023/05/23 13:41:20;;;;;;;10.23;4.82;;;;;;;;;;5017799;28;20446;-61
2023/05/23 13:43:47;;;;;;;12.95;5.57;;;;;;;;;;5021246;28;20427;-58
2023/05/23 13:46:14;;;;;;;17.33;5.70;;;;;;;;;;5022415;28;20483;-56
2023/05/23 13:48:41;;;;;;;9.50;4.55;;;;;;;;;;5024685;28;20419;-58
2023/05/23 13:51:08;;;;;;;12.35;4.60;;;;;;;;;;5025408;28;20453;-58
2023/05/23 13:53:36;;;;;;;11.82;4.40;;;;;;;;;;5023588;28;20413;-58
2023/05/23 13:56:03;;;;;;;12.75;4.03;;;;;;;;;;5022015;28;20420;-58
2023/05/23 13:58:31;;;;;;;13.02;4.50;;;;;;;;;;5022783;28;20415;-59
2023/05/23 14:00:58;;;;;;;10.40;4.00;;;;;;;;;;5019511;28;20421;-59
2023/05/23 14:03:26;;;;;;;8.60;5.53;;;;;;;;;;5018778;28;20829;-59
2023/05/23 14:05:53;;;;;;;12.85;5.63;;;;;;;;;;5026403;28;20430;-59
2023/05/23 14:08:20;;;;;;;11.82;4.70;;;;;;;;;;5022185;28;20424;-56
2023/05/23 14:10:47;;;;;;;10.18;4.28;;;;;;;;;;5028576;28;20422;-59
2023/05/23 14:13:14;;;;;;;13.23;4.82;;;;;;;;;;5024990;28;20998;-55
2023/05/23 14:15:42;;;;;;;10.18;4.00;;;;;;;;;;5022423;28;20472;-58
2023/05/23 14:18:09;;;;;;;15.82;3.92;;;;;;;;;;5023745;28;20411;-55
2023/05/23 14:20:36;;;;;;;11.98;3.65;;;;;;;;;;5024581;28;20422;-57
2023/05/23 14:23:03;;;;;;;12.38;4.03;;;;;;;;;;5022975;28;20475;-55
2023/05/23 14:25:30;;;;;;;12.60;3.85;;;;;;;;;;5019317;28;20419;-59
2023/05/23 14:27:57;;;;;;;10.93;3.73;;;;;;;;;;5024019;28;20506;-59